Brinkley, AR

2:54 PM CDT on March 24, 2017 (GMT -0500)
WEST CLOVERDALE DR. | | Change Station
Active Advisory: Lake Wind Advisory

Elev 203 ft 34.90 °N, 91.20 °W | Updated 1 second ago

Mostly Cloudy
Mostly Cloudy
77.4 °F
Feels Like 78 °F
N
7.4
Wind Variable Wind from SSW
Gusts 9.8 mph

Today
High -- | Low -- °F
--% Chance of Precip.
Yesterday
High -- | Low -- °F
Precip. -- in
Pressure 30.06 in
Visibility 10.0 miles
Clouds Mostly Cloudy 3900 ft
Mostly Cloudy 5000 ft
Heat Index 78 °F
Dew Point 49 °F
Humidity 37%
Rainfall 0.00 in
Snow Depth Not available.
7:02 AM 7:19 PM
Waning Crescent, 13% visible
METAR KSRC 241856Z AUTO 17020G28KT 10SM BKN039 BKN050 24/16 A3005 RMK AO2 PK WND 16030/1834 SLP180 T02390161
Pressure 30.06 in
Visibility 10.0 miles
Clouds Mostly Cloudy 3900 ft
Mostly Cloudy 5000 ft
Heat Index 78 °F
Dew Point 49 °F
Humidity 37%
Rainfall 0.00 in
Snow Depth Not available.
7:02 AM 7:19 PM
Waning Crescent, 13% visible
METAR KSRC 241856Z AUTO 17020G28KT 10SM BKN039 BKN050 24/16 A3005 RMK AO2 PK WND 16030/1834 SLP180 T02390161

Get Your Daily Forecast Email!

Thanks for signing up!

Be on the lookout for a verification email in your inbox.

You'll start receiving severe weather alerts in your inbox..

×

10-Day Weather Forecast

Almanac

Astronomy

Mar. 24, 2017 Rise Set
Actual Time
Civil Twilight
Nautical Twilight
Astronomical Twilight
Moon
Length of Visible Light
Length of Day
Tomorrow will be .
, % of the Moon is Illuminated

Today's Extremes

State Highs State Lows

Community

WunderPhotos

Upload Photos

1,962,540 photos uploaded!

WunderBlog® & News

Nearby

Air Quality

  Air Quality AQ Index Pollutant
Not available.

Snow Depth

Station Depth Elevation

Earthquake Activity

City Distance Mag. Time & Date
Minimum magnitude displayed is 2.5.

Earthquake Activity

City Distance Mag. Time & Date
Minimum magnitude displayed is 2.5.

Coastal Water Temperatures

Place Temperature

Stations

Nearby Weather Stations

Station Location Temp. Windchill Dew Point Humidity Wind Precip. Elev Updated Type
                   

Watches & Warnings

Lake Wind Advisory
Issued: 1:59 PM CDT Mar. 24, 2017 – National Weather Service

... Lake Wind Advisory remains in effect until 10 PM CDT this
evening...

* event: expect breezy southerly winds of 15 to 25 mph... with
gusts of 30 to 35 mph possible.

* Areas affected: a large portion of Arkansas.

* Timing: expect the breezy conditions to continue through the
early evening hours. Then expect the breezy conditions to gradually
decrease by late evening.

Precautionary/preparedness actions...

A lake Wind Advisory indicates that winds will cause rough chop
on area lakes and rivers. Small boats will be especially prone to
capsizing. Extra caution should be taken if out on area lakes and
rivers today.